Monday, December 18, 2017, 5:36 AM EST
Back to Local

KUUU, Newport State Airport

Location: Middletown, RI, United States Lat: 41.533
Local Time: 5:36 AM EST (10:36 GMT) Lon: -71.283
Time Zone: US/Eastern Elev: 170 ft

Show me the last for .
Show Decoded

2017-12-18 04:53 METAR KUUU 180953Z AUTO 08005KT 10SM OVC025 M03/M12 A3017 RMK AO2 SLP219
                 T10281117 =
2017-12-18 03:53 METAR KUUU 180853Z AUTO 09003KT 10SM OVC027 M03/M12 A3019 RMK AO2 SLP226
                 T10281117 58008 =
2017-12-18 03:32 METAR KUUU 180832Z AUTO 00000KT 10SM BKN029 OVC120 M03/M12 A3020 RMK AO2
                 T10281117 =
2017-12-18 02:53 METAR KUUU 180753Z AUTO 06003KT 10SM BKN042 BKN050 OVC120 M03/M12 A3021 RMK AO2
                 SLP230 T10281117 =
2017-12-18 01:53 METAR KUUU 180653Z AUTO 07003KT 10SM FEW045 BKN070 OVC110 M03/M12 A3022 RMK AO2
                 SLP236 T10281122 =
2017-12-18 00:53 METAR KUUU 180553Z AUTO 00000KT 10SM BKN070 M03/M10 A3022 RMK AO2 SLP234
                 T10331100 11017 21044 58010 =
2017-12-17 23:53 METAR KUUU 180453Z AUTO 00000KT 10SM BKN085 M04/M09 A3024 RMK AO2 SLP241
                 T10391089 410111061 =
2017-12-17 22:53 METAR KUUU 180353Z AUTO 00000KT 10SM CLR M03/M10 A3025 RMK AO2 SLP244 T10331100
                 =
2017-12-17 21:53 METAR KUUU 180253Z AUTO 01004KT 10SM CLR M02/M12 A3025 RMK AO2 SLP244 T10221117
                 58003 =
2017-12-17 20:53 METAR KUUU 180153Z AUTO 34003KT 10SM CLR M02/M12 A3027 RMK AO2 SLP253 T10221117
                 =
2017-12-17 19:53 METAR KUUU 180053Z AUTO 32004KT 10SM CLR M02/M12 A3027 RMK AO2 SLP252 T10221122
                 =
2017-12-17 18:53 METAR KUUU 172353Z AUTO 32005KT 10SM CLR M02/M13 A3026 RMK AO2 SLP247 T10221133
                 11011 21022 51012 =
2017-12-17 17:53 METAR KUUU 172253Z AUTO 30005KT 10SM CLR M02/M14 A3025 RMK AO2 SLP243 T10171144
                 =
2017-12-17 16:53 METAR KUUU 172153Z AUTO 30007KT 10SM CLR M02/M16 A3024 RMK AO2 SLP241 T10171156
                 =
2017-12-17 15:53 METAR KUUU 172053Z AUTO 31005KT 10SM CLR M02/M13 A3022 RMK AO2 SLP235 T10171133
                 55002 =
2017-12-17 14:53 METAR KUUU 171953Z AUTO 33005KT 10SM CLR M01/M13 A3021 RMK AO2 SLP231 T10111133
                 =
2017-12-17 13:53 METAR KUUU 171853Z AUTO 32005KT 10SM CLR M01/M14 A3021 RMK AO2 SLP232 T10111144
                 =
2017-12-17 12:53 METAR KUUU 171753Z AUTO 32008KT 10SM CLR M01/M14 A3023 RMK AO2 SLP237 T10111139
                 11011 21061 58013 =
2017-12-17 11:53 METAR KUUU 171653Z AUTO 34009KT 10SM CLR M02/M13 A3024 RMK AO2 SLP241 T10171128
                 =
2017-12-17 10:53 METAR KUUU 171553Z AUTO 31011KT 10SM CLR M02/M12 A3026 RMK AO2 SLP248 T10221122
                 =
2017-12-17 09:53 METAR KUUU 171453Z AUTO 34009KT 10SM CLR M03/M12 A3026 RMK AO2 SLP250 T10331122
                 53001 =
2017-12-17 08:53 METAR KUUU 171353Z AUTO 33007KT 10SM CLR M04/M11 A3027 RMK AO2 SLP250 T10441111
                 =
2017-12-17 07:53 METAR KUUU 171253Z AUTO 33006KT 10SM CLR M06/M11 A3025 RMK AO2 SLP246 T10611111
                 =
2017-12-17 06:53 METAR KUUU 171153Z AUTO 30006KT 10SM CLR M06/M11 A3026 RMK AO2 SLP248 T10611106
                 11033 21061 51016 =
2017-12-17 05:53 METAR KUUU 171053Z AUTO 30006KT 10SM CLR M06/M11 A3026 RMK AO2 SLP247 T10561106
                 =

Support USWX by starting your Amazon purchase here.